Time;durP1;ratioP1;P1;durP2;ratioP2;P2;SDS_P1;SDS_P2;PMS_P1;PMS_P2;Temp;Humidity;BMP_temperature;BMP_pressure;BME280_temperature;BME280_humidity;BME280_pressure;Samples;Min_cycle;Max_cycle;Signal;HPM_P1;HPM_P2
2024/03/29 00:00:55;;;;;;;0.10;0.10;;;7.70;99.90;;;;;;6276827;22;19992;-87
2024/03/29 00:03:21;;;;;;;0.10;0.10;;;;;;;;;;6276955;22;19987;-88
2024/03/29 00:05:47;;;;;;;0.10;0.10;;;;;;;;;;6276427;22;20067;-85
2024/03/29 00:08:13;;;;;;;0.10;0.10;;;;;;;;;;6276666;22;19988;-86
2024/03/29 00:10:39;;;;;;;0.10;0.10;;;;;;;;;;6276435;22;20014;-87
2024/03/29 00:13:05;;;;;;;0.10;0.10;;;;;;;;;;6276028;22;20052;-89
2024/03/29 00:15:34;;;;;;;0.10;0.10;;;7.80;99.90;;;;;;6276691;22;20012;-90
2024/03/29 00:18:00;;;;;;;0.10;0.10;;;;;;;;;;6276357;22;19992;-88
2024/03/29 00:20:26;;;;;;;0.00;0.00;;;;;;;;;;6276709;22;20039;-88
2024/03/29 00:22:52;;;;;;;0.10;0.10;;;;;;;;;;6276727;22;19996;-89
2024/03/29 00:25:18;;;;;;;0.10;0.10;;;;;;;;;;6276566;22;19988;-88
2024/03/29 00:27:44;;;;;;;0.10;0.10;;;;;;;;;;6277200;22;19995;-91
2024/03/29 00:30:10;;;;;;;0.10;0.10;;;;;;;;;;6276297;22;19998;-88
2024/03/29 00:32:36;;;;;;;0.10;0.10;;;;;;;;;;6276162;22;20010;-88
2024/03/29 00:35:02;;;;;;;0.10;0.10;;;;;;;;;;6276558;22;20008;-90
2024/03/29 00:37:28;;;;;;;0.10;0.10;;;;;;;;;;6276784;22;20007;-88
2024/03/29 00:39:54;;;;;;;0.10;0.10;;;;;;;;;;6276646;22;19992;-88
2024/03/29 00:42:21;;;;;;;0.10;0.10;;;;;;;;;;6276567;22;20063;-86
2024/03/29 00:44:47;;;;;;;0.10;0.10;;;;;;;;;;6276815;22;19995;-89
2024/03/29 00:47:16;;;;;;;0.10;0.10;;;;;;;;;;6276212;22;19995;-88
2024/03/29 00:49:42;;;;;;;0.10;0.10;;;;;;;;;;6276622;22;19988;-89
2024/03/29 00:52:08;;;;;;;0.10;0.10;;;;;;;;;;6274797;22;20264;-88
2024/03/29 00:54:34;;;;;;;0.10;0.10;;;;;;;;;;6276118;22;20076;-89
2024/03/29 00:56:59;;;;;;;0.10;0.10;;;7.90;99.90;;;;;;6276235;22;19988;-89
2024/03/29 00:59:25;;;;;;;0.05;0.05;;;;;;;;;;6275344;22;20004;-86
2024/03/29 01:01:51;;;;;;;0.10;0.10;;;;;;;;;;6275505;22;20007;-87
2024/03/29 01:04:17;;;;;;;0.10;0.10;;;;;;;;;;6276680;22;20014;-88
2024/03/29 01:06:44;;;;;;;0.10;0.10;;;;;;;;;;6276416;22;19988;-88
2024/03/29 01:09:11;;;;;;;0.00;0.00;;;;;;;;;;6276012;22;20011;-87
2024/03/29 01:11:37;;;;;;;0.10;0.10;;;;;;;;;;6275540;22;20059;-89
2024/03/29 01:14:03;;;;;;;0.10;0.10;;;;;;;;;;6276394;22;20020;-89
2024/03/29 01:16:30;;;;;;;0.10;0.10;;;;;;;;;;6276502;22;19988;-90
2024/03/29 01:18:55;;;;;;;0.10;0.10;;;;;;;;;;6276135;22;20000;-89
2024/03/29 01:21:21;;;;;;;0.10;0.10;;;;;;;;;;6275795;22;19992;-89
2024/03/29 01:23:47;;;;;;;0.10;0.10;;;;;;;;;;6276031;22;19988;-88
2024/03/29 01:26:14;;;;;;;0.10;0.10;;;;;;;;;;6275793;22;19991;-88
2024/03/29 01:28:40;;;;;;;0.10;0.10;;;;;;;;;;6276251;22;20099;-88
2024/03/29 01:31:06;;;;;;;0.10;0.10;;;;;;;;;;6274719;22;20004;-90
2024/03/29 01:33:36;;;;;;;0.00;0.00;;;;;;;;;;6275793;22;19984;-91
2024/03/29 01:36:02;;;;;;;0.10;0.10;;;;;;;;;;6276397;22;20015;-88
2024/03/29 01:38:28;;;;;;;0.10;0.10;;;;;;;;;;6276300;22;20067;-90
2024/03/29 01:40:54;;;;;;;0.10;0.10;;;;;;;;;;6275662;22;19992;-87
2024/03/29 01:43:20;;;;;;;0.00;0.00;;;;;;;;;;6275305;22;20007;-86
2024/03/29 01:45:49;;;;;;;0.10;0.10;;;7.60;99.90;;;;;;6274997;22;20003;-89
2024/03/29 01:48:16;;;;;;;0.10;0.10;;;7.60;99.90;;;;;;6275732;22;19992;-88
2024/03/29 01:50:42;;;;;;;0.10;0.10;;;;;;;;;;6275343;22;19987;-88
2024/03/29 01:53:08;;;;;;;0.00;0.00;;;7.70;99.90;;;;;;6276830;22;20012;-89
2024/03/29 01:55:35;;;;;;;0.05;0.05;;;7.70;99.90;;;;;;6277289;22;20022;-88
2024/03/29 01:58:02;;;;;;;0.00;0.00;;;;;;;;;;6277533;22;20029;-90
2024/03/29 02:00:28;;;;;;;0.10;0.10;;;;;;;;;;6277072;22;19988;-87
2024/03/29 02:02:54;;;;;;;0.10;0.10;;;;;;;;;;6278085;22;19995;-88
2024/03/29 02:05:20;;;;;;;0.10;0.10;;;;;;;;;;6277734;22;19999;-89
2024/03/29 02:07:48;;;;;;;0.10;0.10;;;;;;;;;;6277834;22;20011;-91
2024/03/29 02:10:15;;;;;;;0.10;0.10;;;7.80;99.90;;;;;;6277824;22;20051;-89
2024/03/29 02:12:41;;;;;;;0.10;0.10;;;;;;;;;;6278006;22;19994;-88
2024/03/29 02:15:07;;;;;;;0.10;0.10;;;;;;;;;;6276475;22;20000;-87
2024/03/29 02:17:33;;;;;;;0.10;0.10;;;;;;;;;;6277811;22;20059;-87
2024/03/29 02:19:59;;;;;;;0.10;0.10;;;;;;;;;;6277538;22;20039;-86
2024/03/29 02:22:27;;;;;;;0.10;0.10;;;7.90;99.90;;;;;;6277643;22;19988;-89
2024/03/29 02:24:56;;;;;;;0.10;0.10;;;8.00;99.90;;;;;;6277479;22;19998;-90
2024/03/29 02:27:22;;;;;;;0.10;0.10;;;;;;;;;;6277467;22;19998;-90
2024/03/29 02:30:00;;;;;;;0.10;0.10;;;7.90;99.90;;;;;;6277140;22;20237;-87
2024/03/29 02:32:26;;;;;;;0.10;0.10;;;;;;;;;;6277456;22;20015;-90
2024/03/29 02:34:53;;;;;;;0.08;0.08;;;8.20;99.90;;;;;;6276626;22;19988;-90
2024/03/29 02:37:19;;;;;;;0.10;0.10;;;;;;;;;;6277823;22;20099;-89
2024/03/29 02:39:45;;;;;;;0.00;0.00;;;;;;;;;;6277535;22;19999;-89
2024/03/29 02:42:11;;;;;;;0.00;0.00;;;;;;;;;;6276059;22;20007;-88
2024/03/29 02:44:37;;;;;;;0.00;0.00;;;;;;;;;;6276887;22;19995;-89
2024/03/29 02:47:03;;;;;;;0.08;0.08;;;;;;;;;;6276922;22;19996;-89
2024/03/29 02:49:29;;;;;;;0.03;0.03;;;;;;;;;;6277356;22;19996;-89
2024/03/29 02:51:55;;;;;;;0.10;0.10;;;;;;;;;;6277053;22;20004;-88
2024/03/29 02:54:21;;;;;;;0.10;0.10;;;;;;;;;;6276606;22;20020;-88
2024/03/29 02:56:47;;;;;;;0.10;0.10;;;;;;;;;;6276222;22;19999;-91
2024/03/29 02:59:13;;;;;;;0.10;0.10;;;;;;;;;;6276825;22;20019;-90
2024/03/29 03:01:40;;;;;;;0.10;0.10;;;8.30;99.90;;;;;;6276629;22;19992;-90
2024/03/29 03:04:06;;;;;;;0.10;0.10;;;;;;;;;;6276884;22;19999;-89
2024/03/29 03:06:32;;;;;;;0.10;0.10;;;;;;;;;;6277639;22;20018;-94
2024/03/29 03:11:42;;;;;;;0.00;0.00;;;;;;;;;;6303184;22;20023;-88
2024/03/29 03:14:08;;;;;;;0.10;0.10;;;;;;;;;;6276775;22;19987;-87
2024/03/29 03:16:34;;;;;;;0.05;0.05;;;;;;;;;;6277071;22;19992;-88
2024/03/29 03:19:00;;;;;;;0.00;0.00;;;;;;;;;;6277264;22;20018;-91
2024/03/29 03:21:26;;;;;;;0.10;0.10;;;;;;;;;;6276403;22;19999;-88
2024/03/29 03:23:52;;;;;;;0.10;0.10;;;;;;;;;;6276684;22;19999;-88
2024/03/29 03:26:18;;;;;;;0.10;0.10;;;;;;;;;;6275307;22;20211;-89
2024/03/29 03:28:44;;;;;;;0.10;0.10;;;;;;;;;;6277236;22;20003;-89
2024/03/29 03:31:10;;;;;;;0.10;0.10;;;;;;;;;;6275743;22;19980;-86
2024/03/29 03:33:35;;;;;;;0.10;0.10;;;;;;;;;;6277242;22;19988;-87
2024/03/29 03:36:01;;;;;;;0.10;0.10;;;;;;;;;;6277348;22;19992;-87
2024/03/29 03:38:27;;;;;;;0.10;0.10;;;;;;;;;;6277302;22;20007;-89
2024/03/29 03:40:53;;;;;;;0.10;0.10;;;;;;;;;;6273831;22;20022;-86
2024/03/29 03:43:19;;;;;;;0.10;0.10;;;;;;;;;;6276797;22;20061;-88
2024/03/29 03:45:47;;;;;;;0.10;0.10;;;;;;;;;;6275351;22;19996;-88
2024/03/29 03:48:13;;;;;;;0.10;0.10;;;;;;;;;;6277426;22;20009;-87
2024/03/29 03:50:41;;;;;;;0.10;0.10;;;;;;;;;;6276208;22;19988;-87
2024/03/29 03:53:06;;;;;;;0.10;0.10;;;;;;;;;;6276420;22;20115;-84
2024/03/29 03:55:36;;;;;;;0.00;0.00;;;8.50;99.90;;;;;;6276439;22;20038;-86
2024/03/29 03:58:02;;;;;;;0.00;0.00;;;;;;;;;;6276398;22;20341;-89
2024/03/29 04:00:28;;;;;;;0.10;0.10;;;;;;;;;;6275633;22;19984;-88
2024/03/29 04:02:56;;;;;;;0.10;0.10;;;;;;;;;;6276744;22;20007;-88
2024/03/29 04:05:22;;;;;;;0.08;0.08;;;;;;;;;;6276360;22;20003;-88
2024/03/29 04:07:48;;;;;;;0.10;0.10;;;;;;;;;;6276727;22;19983;-89
2024/03/29 04:10:14;;;;;;;0.10;0.10;;;;;;;;;;6276093;22;20000;-88
2024/03/29 04:12:40;;;;;;;0.10;0.10;;;;;;;;;;6276243;22;20011;-89
2024/03/29 04:15:06;;;;;;;0.10;0.10;;;;;;;;;;6276240;22;20014;-88
2024/03/29 04:17:33;;;;;;;0.00;0.00;;;;;;;;;;6275935;22;20006;-88
2024/03/29 04:19:59;;;;;;;0.03;0.03;;;;;;;;;;6276136;22;19991;-88
2024/03/29 04:22:27;;;;;;;0.10;0.10;;;8.60;99.90;;;;;;6276247;22;20006;-88
2024/03/29 04:24:53;;;;;;;0.00;0.00;;;;;;;;;;6276429;22;20051;-89
2024/03/29 04:27:19;;;;;;;0.10;0.10;;;;;;;;;;6274642;22;19992;-88
2024/03/29 04:29:45;;;;;;;0.00;0.00;;;;;;;;;;6275609;22;19992;-89
2024/03/29 04:32:11;;;;;;;0.10;0.10;;;;;;;;;;6276104;22;19992;-88
2024/03/29 04:34:37;;;;;;;0.10;0.10;;;;;;;;;;6276007;22;19996;-88
2024/03/29 04:37:03;;;;;;;0.10;0.10;;;;;;;;;;6276086;22;19992;-86
2024/03/29 04:39:29;;;;;;;0.10;0.10;;;;;;;;;;6276042;22;20003;-89
2024/03/29 04:41:55;;;;;;;0.10;0.10;;;;;;;;;;6276412;22;20099;-89
2024/03/29 04:44:25;;;;;;;0.10;0.10;;;9.00;99.90;;;;;;6275865;22;19984;-86
2024/03/29 04:46:52;;;;;;;0.10;0.10;;;;;;;;;;6276488;22;19995;-90
2024/03/29 04:49:33;;;;;;;0.10;0.10;;;9.00;99.90;;;;;;6275038;22;20048;-87
2024/03/29 04:51:59;;;;;;;0.10;0.10;;;;;;;;;;6276050;22;20060;-87
2024/03/29 04:54:25;;;;;;;0.00;0.00;;;;;;;;;;6276011;22;19994;-87
2024/03/29 04:56:51;;;;;;;0.10;0.10;;;;;;;;;;6275608;22;20038;-88
2024/03/29 04:59:17;;;;;;;0.00;0.00;;;;;;;;;;6275195;22;20003;-88
2024/03/29 05:01:44;;;;;;;0.10;0.10;;;9.00;99.90;;;;;;6275514;22;19984;-87
2024/03/29 05:04:10;;;;;;;0.10;0.10;;;;;;;;;;6276652;22;19988;-87
2024/03/29 05:06:36;;;;;;;0.10;0.10;;;;;;;;;;6275875;22;20000;-86
2024/03/29 05:09:02;;;;;;;0.10;0.10;;;;;;;;;;6275521;22;20050;-88
2024/03/29 05:11:28;;;;;;;0.00;0.00;;;;;;;;;;6275703;22;20070;-88
2024/03/29 05:13:54;;;;;;;0.00;0.00;;;;;;;;;;6276108;22;19995;-86
2024/03/29 05:16:21;;;;;;;0.10;0.10;;;;;;;;;;6275581;22;20026;-87
2024/03/29 05:18:47;;;;;;;0.10;0.10;;;;;;;;;;6275940;22;20004;-88
2024/03/29 05:21:13;;;;;;;0.00;0.00;;;;;;;;;;6276741;22;20002;-88
2024/03/29 05:23:39;;;;;;;0.00;0.00;;;;;;;;;;6275273;22;20051;-87
2024/03/29 05:26:06;;;;;;;0.10;0.10;;;;;;;;;;6275516;22;19996;-88
2024/03/29 05:28:32;;;;;;;0.10;0.10;;;;;;;;;;6276733;22;19995;-85
2024/03/29 05:31:16;;;;;;;0.00;0.00;;;8.80;99.90;;;;;;6277482;22;19992;-89
2024/03/29 05:33:42;;;;;;;0.08;0.08;;;;;;;;;;6277988;22;20006;-87
2024/03/29 05:36:10;;;;;;;0.00;0.00;;;;;;;;;;6277451;22;20000;-86
2024/03/29 05:38:36;;;;;;;0.10;0.10;;;;;;;;;;6277557;22;19999;-87
2024/03/29 05:41:02;;;;;;;0.10;0.10;;;;;;;;;;6277577;22;19996;-87
2024/03/29 05:43:28;;;;;;;0.10;0.10;;;;;;;;;;6276497;22;20003;-87
2024/03/29 05:45:54;;;;;;;0.00;0.00;;;;;;;;;;6277815;22;20007;-87
2024/03/29 05:48:20;;;;;;;0.08;0.08;;;;;;;;;;6276593;22;19999;-86
2024/03/29 05:50:46;;;;;;;0.00;0.00;;;;;;;;;;6277620;22;20075;-86
2024/03/29 05:53:12;;;;;;;0.10;0.10;;;;;;;;;;6277210;22;20026;-86
2024/03/29 05:55:38;;;;;;;0.10;0.10;;;;;;;;;;6277381;22;19991;-87
2024/03/29 05:58:05;;;;;;;0.00;0.00;;;;;;;;;;6277620;22;20047;-88
2024/03/29 06:00:32;;;;;;;0.10;0.10;;;;;;;;;;6276343;22;20016;-88
2024/03/29 06:02:58;;;;;;;0.00;0.00;;;;;;;;;;6277643;22;20004;-88
2024/03/29 06:05:24;;;;;;;0.10;0.10;;;;;;;;;;6278169;22;20012;-87
2024/03/29 06:07:50;;;;;;;0.10;0.10;;;;;;;;;;6277377;22;19992;-86
2024/03/29 06:10:16;;;;;;;0.00;0.00;;;;;;;;;;6278177;22;20004;-86
2024/03/29 06:12:42;;;;;;;0.00;0.00;;;;;;;;;;6277275;22;19995;-88
2024/03/29 06:17:53;;;;;;;0.10;0.10;;;;;;;;;;6304154;22;20014;-86
2024/03/29 06:20:19;;;;;;;0.03;0.03;;;;;;;;;;6277639;22;19988;-87
2024/03/29 06:22:45;;;;;;;0.00;0.00;;;;;;;;;;6276214;22;19995;-87
2024/03/29 06:25:11;;;;;;;0.00;0.00;;;;;;;;;;6277183;22;20023;-87
2024/03/29 06:27:37;;;;;;;0.05;0.05;;;;;;;;;;6276784;22;19999;-86
2024/03/29 06:30:04;;;;;;;0.10;0.10;;;;;;;;;;6276955;22;19992;-87
2024/03/29 06:32:30;;;;;;;0.10;0.10;;;;;;;;;;6276144;22;19991;-87
2024/03/29 06:34:56;;;;;;;0.00;0.00;;;;;;;;;;6277802;22;20007;-87
2024/03/29 06:37:24;;;;;;;0.10;0.10;;;;;;;;;;6277699;22;19988;-84
2024/03/29 06:39:50;;;;;;;0.00;0.00;;;;;;;;;;6277873;22;20049;-86
2024/03/29 06:42:16;;;;;;;0.10;0.10;;;;;;;;;;6277379;22;20010;-87
2024/03/29 06:44:42;;;;;;;0.00;0.00;;;;;;;;;;6275024;22;20026;-87
2024/03/29 06:47:08;;;;;;;0.00;0.00;;;;;;;;;;6277761;22;20003;-87
2024/03/29 06:49:35;;;;;;;0.00;0.00;;;;;;;;;;6276535;22;19995;-86
2024/03/29 06:52:01;;;;;;;0.00;0.00;;;;;;;;;;6276331;22;20003;-87
2024/03/29 06:54:27;;;;;;;0.00;0.00;;;;;;;;;;6276033;22;20054;-87
2024/03/29 06:56:53;;;;;;;0.00;0.00;;;;;;;;;;6276831;22;20060;-87
2024/03/29 06:59:20;;;;;;;0.08;0.08;;;;;;;;;;6275561;22;20010;-88
2024/03/29 07:01:52;;;;;;;0.10;0.10;;;;;;;;;;6277626;22;20020;-87
2024/03/29 07:04:21;;;;;;;0.00;0.00;;;;;;;;;;6277666;22;20000;-88
2024/03/29 07:06:47;;;;;;;0.10;0.10;;;;;;;;;;6277474;22;20023;-88
2024/03/29 07:09:14;;;;;;;0.10;0.10;;;8.90;99.90;;;;;;6277425;22;20015;-86
2024/03/29 07:11:40;;;;;;;0.10;0.10;;;;;;;;;;6277167;22;20051;-87
2024/03/29 07:14:06;;;;;;;0.00;0.00;;;;;;;;;;6277541;22;20000;-87
2024/03/29 07:16:32;;;;;;;0.10;0.10;;;;;;;;;;6277085;22;20015;-88
2024/03/29 07:18:58;;;;;;;0.00;0.00;;;;;;;;;;6277619;22;20250;-86
2024/03/29 07:21:24;;;;;;;0.10;0.10;;;9.10;99.90;;;;;;6277267;22;20075;-88
2024/03/29 07:23:50;;;;;;;0.10;0.10;;;;;;;;;;6277345;22;20026;-87
2024/03/29 07:26:16;;;;;;;0.00;0.00;;;;;;;;;;6277440;22;20007;-87
2024/03/29 07:28:42;;;;;;;0.10;0.10;;;;;;;;;;6277296;22;19999;-87
2024/03/29 07:31:09;;;;;;;0.00;0.00;;;;;;;;;;6277524;22;20046;-85
2024/03/29 07:33:35;;;;;;;0.00;0.00;;;;;;;;;;6277388;22;19996;-87
2024/03/29 07:36:01;;;;;;;0.00;0.00;;;;;;;;;;6277131;22;20000;-86
2024/03/29 07:38:27;;;;;;;0.00;0.00;;;;;;;;;;6277421;22;20027;-89
2024/03/29 07:40:54;;;;;;;0.10;0.10;;;;;;;;;;6277122;22;19999;-86
2024/03/29 07:43:24;;;;;;;0.10;0.10;;;9.50;99.90;;;;;;6277768;22;19991;-88
2024/03/29 07:45:50;;;;;;;0.00;0.00;;;;;;;;;;6276881;22;20015;-88
2024/03/29 07:48:17;;;;;;;0.00;0.00;;;9.60;99.90;;;;;;6277190;22;20020;-87
2024/03/29 07:50:43;;;;;;;0.00;0.00;;;;;;;;;;6276575;22;20015;-88
2024/03/29 07:53:10;;;;;;;0.00;0.00;;;;;;;;;;6277307;22;19999;-87
2024/03/29 07:55:36;;;;;;;0.03;0.03;;;;;;;;;;6275837;22;19999;-88
2024/03/29 07:58:03;;;;;;;0.00;0.00;;;;;;;;;;6276584;22;20003;-87
2024/03/29 08:00:32;;;;;;;0.00;0.00;;;9.70;99.90;;;;;;6274660;22;19991;-86
2024/03/29 08:02:58;;;;;;;0.00;0.00;;;;;;;;;;6277078;22;19990;-88
2024/03/29 08:05:24;;;;;;;0.03;0.03;;;;;;;;;;6276562;22;20000;-88
2024/03/29 08:07:50;;;;;;;0.00;0.00;;;;;;;;;;6275933;22;19995;-88
2024/03/29 08:10:16;;;;;;;0.10;0.10;;;;;;;;;;6276915;22;19996;-87
2024/03/29 08:12:42;;;;;;;0.00;0.00;;;;;;;;;;6276935;22;19984;-87
2024/03/29 08:15:08;;;;;;;0.00;0.00;;;;;;;;;;6276140;22;20051;-88
2024/03/29 08:17:35;;;;;;;0.00;0.00;;;;;;;;;;6276409;22;19992;-86
2024/03/29 08:20:01;;;;;;;0.10;0.10;;;;;;;;;;6277294;22;19995;-86
2024/03/29 08:22:28;;;;;;;0.08;0.08;;;;;;;;;;6276761;22;20015;-88
2024/03/29 08:24:54;;;;;;;0.00;0.00;;;;;;;;;;6276144;22;19996;-87
2024/03/29 08:27:20;;;;;;;0.00;0.00;;;;;;;;;;6276554;22;19991;-86
2024/03/29 08:29:46;;;;;;;0.10;0.10;;;;;;;;;;6276261;22;19987;-88
2024/03/29 08:32:12;;;;;;;0.00;0.00;;;;;;;;;;6276308;22;19992;-87
2024/03/29 08:34:38;;;;;;;0.00;0.00;;;;;;;;;;6275477;22;20014;-87
2024/03/29 08:37:05;;;;;;;0.00;0.00;;;;;;;;;;6276735;22;20043;-88
2024/03/29 08:39:34;;;;;;;0.00;0.00;;;10.60;99.90;;;;;;6276977;22;20000;-88
2024/03/29 08:42:04;;;;;;;0.08;0.08;;;;;;;;;;6276345;22;19996;-88
2024/03/29 08:44:30;;;;;;;0.00;0.00;;;;;;;;;;6276801;22;19996;-88
2024/03/29 08:46:58;;;;;;;0.00;0.00;;;;;;;;;;6275026;22;20018;-87
2024/03/29 08:49:24;;;;;;;0.10;0.10;;;;;;;;;;6276139;22;19988;-86
2024/03/29 08:51:50;;;;;;;0.00;0.00;;;;;;;;;;6275758;22;20006;-87
2024/03/29 08:54:16;;;;;;;0.00;0.00;;;;;;;;;;6276209;22;20016;-88
2024/03/29 08:56:42;;;;;;;0.00;0.00;;;;;;;;;;6276330;22;19996;-88
2024/03/29 08:59:09;;;;;;;0.00;0.00;;;;;;;;;;6276448;22;20019;-87
2024/03/29 09:01:42;;;;;;;0.00;0.00;;;10.70;99.90;;;;;;6277523;22;19996;-87
2024/03/29 09:04:11;;;;;;;0.00;0.00;;;;;;;;;;6280126;22;20075;-86
2024/03/29 09:06:37;;;;;;;0.00;0.00;;;;;;;;;;6278861;22;20018;-85
2024/03/29 09:09:03;;;;;;;0.00;0.00;;;;;;;;;;6280022;22;20040;-88
2024/03/29 09:11:29;;;;;;;0.00;0.00;;;;;;;;;;6279155;22;19992;-87
2024/03/29 09:13:58;;;;;;;0.00;0.00;;;;;;;;;;6279929;22;20023;-86
2024/03/29 09:16:24;;;;;;;0.00;0.00;;;;;;;;;;6279787;22;20011;-88
2024/03/29 09:18:51;;;;;;;0.00;0.00;;;10.90;99.90;;;;;;6279747;22;20003;-87
2024/03/29 09:21:17;;;;;;;0.00;0.00;;;;;;;;;;6278468;22;20019;-87
2024/03/29 09:23:43;;;;;;;0.00;0.00;;;;;;;;;;6279671;22;19988;-86
2024/03/29 09:26:09;;;;;;;0.00;0.00;;;;;;;;;;6279826;22;19991;-87
2024/03/29 09:28:36;;;;;;;0.00;0.00;;;;;;;;;;6280485;22;19992;-87
2024/03/29 09:31:02;;;;;;;0.00;0.00;;;;;;;;;;6278601;22;20003;-88
2024/03/29 09:33:28;;;;;;;0.00;0.00;;;;;;;;;;6279977;22;20013;-87
2024/03/29 09:35:54;;;;;;;0.00;0.00;;;;;;;;;;6279560;22;20019;-87
2024/03/29 09:38:21;;;;;;;0.00;0.00;;;;;;;;;;6280031;22;20043;-87
2024/03/29 09:40:47;;;;;;;0.00;0.00;;;;;;;;;;6279561;22;19995;-86
2024/03/29 09:43:14;;;;;;;0.00;0.00;;;11.70;99.90;;;;;;6279910;22;20055;-87
2024/03/29 09:45:40;;;;;;;0.00;0.00;;;;;;;;;;6279411;22;20011;-85
2024/03/29 09:48:08;;;;;;;0.00;0.00;;;11.80;99.90;;;;;;6279835;22;20045;-86
2024/03/29 09:58:23;;;;;;;0.00;0.00;;;;;;;;;;6275989;22;19996;-89
2024/03/29 10:00:48;;;;;;;0.00;0.00;;;;;;;;;;6276119;22;20039;-89
2024/03/29 10:03:14;;;;;;;0.00;0.00;;;12.90;99.90;;;;;;6275406;23;19976;-87
2024/03/29 10:05:42;;;;;;;0.00;0.00;;;;;;;;;;6273346;23;19980;-88
2024/03/29 10:08:08;;;;;;;0.00;0.00;;;;;;;;;;6275514;23;20039;-88
2024/03/29 14:17:16;;;;;;;0.00;0.00;;;;;;;;;;6254111;23;20043;-92
2024/03/29 14:19:42;;;;;;;0.00;0.00;;;;;;;;;;6252932;23;20019;-92
2024/03/29 14:22:08;;;;;;;0.00;0.00;;;;;;;;;;6226513;23;20000;-92
2024/03/29 14:24:39;;;;;;;0.00;0.00;;;;;;;;;;6227084;23;20023;-93
2024/03/29 14:27:05;;;;;;;0.00;0.00;;;;;;;;;;6225970;23;20012;-93
2024/03/29 14:29:34;;;;;;;0.00;0.00;;;;;;;;;;6226512;22;20008;-92
2024/03/29 14:32:01;;;;;;;0.00;0.00;;;;;;;;;;6225081;23;20004;-93
2024/03/29 14:34:27;;;;;;;0.00;0.00;;;;;;;;;;6224085;23;20032;-92
2024/03/29 14:36:53;;;;;;;0.00;0.00;;;;;;;;;;6227845;23;20487;-91
2024/03/29 14:39:20;;;;;;;0.00;0.00;;;;;;;;;;6223462;22;20012;-90
2024/03/29 14:41:47;;;;;;;0.00;0.00;;;;;;;;;;6224689;23;20070;-91
2024/03/29 14:44:13;;;;;;;0.00;0.00;;;;;;;;;;6223852;23;20085;-92
2024/03/29 14:46:39;;;;;;;0.00;0.00;;;;;;;;;;6222918;23;20039;-92
2024/03/29 14:49:06;;;;;;;0.00;0.00;;;;;;;;;;6222849;23;20091;-92
2024/03/29 14:51:33;;;;;;;0.00;0.00;;;15.70;99.90;;;;;;6223644;23;20036;-91
2024/03/29 14:53:59;;;;;;;0.00;0.00;;;;;;;;;;6222143;23;20011;-92
2024/03/29 14:56:25;;;;;;;0.00;0.00;;;;;;;;;;6223874;23;20012;-92
2024/03/29 14:58:51;;;;;;;0.00;0.00;;;;;;;;;;6221719;23;20008;-92
2024/03/29 15:01:17;;;;;;;0.00;0.00;;;;;;;;;;6222627;23;20000;-92
2024/03/29 15:03:43;;;;;;;0.00;0.00;;;;;;;;;;6224612;23;20437;-92
2024/03/29 15:06:09;;;;;;;0.00;0.00;;;;;;;;;;6221393;23;20480;-91
2024/03/29 15:08:35;;;;;;;0.00;0.00;;;;;;;;;;6223843;23;20436;-92
2024/03/29 15:11:01;;;;;;;0.00;0.00;;;;;;;;;;6222912;23;20004;-91
2024/03/29 15:13:29;;;;;;;0.00;0.00;;;;;;;;;;6224090;23;20441;-91
2024/03/29 15:15:58;;;;;;;0.00;0.00;;;;;;;;;;6210762;23;20160;-92
2024/03/29 15:18:24;;;;;;;0.00;0.00;;;;;;;;;;6193503;23;20012;-91
2024/03/29 15:20:58;;;;;;;0.00;0.00;;;15.90;99.90;;;;;;6194270;23;20000;-91
2024/03/29 15:23:24;;;;;;;0.00;0.00;;;15.90;99.90;;;;;;6192601;23;20005;-91
2024/03/29 15:25:51;;;;;;;0.00;0.00;;;15.90;99.90;;;;;;6190764;23;20004;-92
2024/03/29 15:30:56;;;;;;;0.00;0.00;;;;;;;;;;6219219;23;20013;-91
2024/03/29 15:33:22;;;;;;;0.00;0.00;;;;;;;;;;6192635;23;20146;-92
2024/03/29 15:35:48;;;;;;;0.00;0.00;;;;;;;;;;6192149;23;20429;-90
2024/03/29 15:38:19;;;;;;;0.00;0.00;;;;;;;;;;6202690;23;20051;-93
2024/03/29 15:40:45;;;;;;;0.00;0.00;;;;;;;;;;6189765;23;20004;-91
2024/03/29 15:43:11;;;;;;;0.00;0.00;;;;;;;;;;6189391;23;20005;-92
2024/03/29 15:45:37;;;;;;;0.00;0.00;;;;;;;;;;6190850;23;19996;-91
2024/03/29 15:48:03;;;;;;;0.00;0.00;;;;;;;;;;6191815;23;20011;-92
2024/03/29 15:50:30;;;;;;;0.00;0.00;;;;;;;;;;6191690;23;20005;-91
2024/03/29 15:52:56;;;;;;;0.00;0.00;;;;;;;;;;6190404;23;20091;-92
2024/03/29 15:55:22;;;;;;;0.00;0.00;;;;;;;;;;6191365;23;20452;-91
2024/03/29 15:57:48;;;;;;;0.00;0.00;;;;;;;;;;6191467;23;20005;-93
2024/03/29 16:00:14;;;;;;;0.00;0.00;;;;;;;;;;6192222;23;20008;-92
2024/03/29 16:02:48;;;;;;;0.00;0.00;;;;;;;;;;6192763;23;20004;-93
2024/03/29 16:05:14;;;;;;;0.00;0.00;;;;;;;;;;6191933;23;20004;-92
2024/03/29 16:07:40;;;;;;;0.00;0.00;;;;;;;;;;6191654;23;20088;-92
2024/03/29 16:10:06;;;;;;;0.00;0.00;;;;;;;;;;6195023;23;20017;-92
2024/03/29 16:12:32;;;;;;;0.00;0.00;;;;;;;;;;6191748;23;20409;-92
2024/03/29 16:14:58;;;;;;;0.00;0.00;;;;;;;;;;6191690;23;20000;-91
2024/03/29 16:17:23;;;;;;;0.00;0.00;;;;;;;;;;6191002;23;20031;-91
2024/03/29 16:19:49;;;;;;;0.00;0.00;;;;;;;;;;6190681;23;20008;-92
2024/03/29 16:22:15;;;;;;;0.00;0.00;;;;;;;;;;6191281;23;20058;-91
2024/03/29 16:24:41;;;;;;;0.00;0.00;;;;;;;;;;6188297;23;20008;-92
2024/03/29 16:27:07;;;;;;;0.00;0.00;;;;;;;;;;6189859;23;20028;-92
2024/03/29 16:29:33;;;;;;;0.00;0.00;;;;;;;;;;6192067;23;20008;-93
2024/03/29 16:32:00;;;;;;;0.00;0.00;;;;;;;;;;6191388;23;20020;-93
2024/03/29 16:34:26;;;;;;;0.00;0.00;;;;;;;;;;6189348;23;20098;-92
2024/03/29 16:36:52;;;;;;;0.00;0.00;;;;;;;;;;6196251;23;20032;-95
2024/03/29 16:39:18;;;;;;;0.00;0.00;;;;;;;;;;6212837;23;20497;-93
2024/03/29 16:41:47;;;;;;;0.00;0.00;;;;;;;;;;6211188;23;19984;-94
2024/03/29 16:44:13;;;;;;;0.00;0.00;;;;;;;;;;6216874;23;20039;-95
2024/03/29 18:35:24;;;;;;;0.00;0.00;;;;;;;;;;6332454;22;20003;-88
2024/03/29 18:37:50;;;;;;;0.00;0.00;;;;;;;;;;6332940;22;20015;-88
2024/03/29 18:40:16;;;;;;;0.00;0.00;;;;;;;;;;6333138;22;20002;-87
2024/03/29 18:42:42;;;;;;;0.00;0.00;;;;;;;;;;6334231;22;20039;-87
2024/03/29 18:45:08;;;;;;;0.00;0.00;;;;;;;;;;6334081;22;19988;-87
2024/03/29 18:47:34;;;;;;;0.00;0.00;;;;;;;;;;6334675;22;19987;-88
2024/03/29 21:07:12;;;;;;;0.00;0.00;;;;;;;;;;6328034;22;20019;-91
2024/03/29 21:09:38;;;;;;;0.00;0.00;;;;;;;;;;6328097;22;20049;-92
2024/03/29 21:12:05;;;;;;;0.00;0.00;;;12.30;99.90;;;;;;6327618;22;20007;-92
2024/03/29 21:14:30;;;;;;;0.00;0.00;;;;;;;;;;6299240;22;19987;-93
2024/03/29 21:16:57;;;;;;;0.00;0.00;;;;;;;;;;6323242;22;20028;-93
2024/03/29 21:19:23;;;;;;;0.00;0.00;;;;;;;;;;6321813;22;20017;-92
2024/03/29 21:21:49;;;;;;;0.00;0.00;;;;;;;;;;6324674;22;19999;-94
2024/03/29 21:24:15;;;;;;;0.00;0.00;;;;;;;;;;6325199;22;20086;-93
2024/03/29 21:26:41;;;;;;;0.00;0.00;;;;;;;;;;6324494;22;20004;-94
2024/03/29 21:29:07;;;;;;;0.00;0.00;;;;;;;;;;6324322;22;19992;-93
2024/03/29 21:31:34;;;;;;;0.00;0.00;;;12.00;99.90;;;;;;6325187;22;19984;-93
2024/03/29 21:33:59;;;;;;;0.00;0.00;;;;;;;;;;6324181;22;19984;-93
2024/03/29 21:36:25;;;;;;;0.00;0.00;;;;;;;;;;6322476;22;20094;-93
2024/03/29 21:38:51;;;;;;;0.00;0.00;;;;;;;;;;6317204;22;20070;-92
2024/03/29 21:41:18;;;;;;;0.00;0.00;;;;;;;;;;6322002;22;20451;-93
2024/03/29 21:43:45;;;;;;;0.00;0.00;;;;;;;;;;6324259;22;19994;-93
2024/03/29 21:46:11;;;;;;;0.00;0.00;;;;;;;;;;6322918;22;20000;-93
2024/03/29 21:48:37;;;;;;;0.00;0.00;;;;;;;;;;6324377;22;19999;-94
2024/03/29 21:51:03;;;;;;;0.00;0.00;;;;;;;;;;6324722;22;20011;-93
2024/03/29 21:53:28;;;;;;;0.00;0.00;;;;;;;;;;6326880;22;20121;-92
2024/03/29 21:55:54;;;;;;;0.00;0.00;;;;;;;;;;6325451;22;19984;-93
2024/03/29 21:58:20;;;;;;;0.00;0.00;;;;;;;;;;6321748;22;20012;-93
2024/03/29 22:00:46;;;;;;;0.00;0.00;;;;;;;;;;6321017;22;20002;-93
2024/03/29 22:03:13;;;;;;;0.00;0.00;;;;;;;;;;6322285;22;20008;-92
2024/03/29 22:05:42;;;;;;;0.00;0.00;;;;;;;;;;6323807;22;20023;-94
2024/03/29 22:08:08;;;;;;;0.00;0.00;;;;;;;;;;6322005;22;20004;-93
2024/03/29 22:10:34;;;;;;;0.00;0.00;;;;;;;;;;6324243;22;20004;-93
2024/03/29 22:13:00;;;;;;;0.00;0.00;;;;;;;;;;6328427;22;20000;-93
2024/03/29 22:15:26;;;;;;;0.00;0.00;;;;;;;;;;6325681;22;20014;-94
2024/03/29 22:17:52;;;;;;;0.00;0.00;;;;;;;;;;6326063;22;20003;-93
2024/03/29 22:20:18;;;;;;;0.00;0.00;;;;;;;;;;6324951;22;19987;-93
2024/03/29 22:22:44;;;;;;;0.00;0.00;;;;;;;;;;6324666;22;20007;-93
2024/03/29 22:25:10;;;;;;;0.00;0.00;;;;;;;;;;6325869;22;20059;-92
2024/03/29 22:27:36;;;;;;;0.00;0.00;;;;;;;;;;6324893;22;20011;-93
2024/03/29 22:30:02;;;;;;;0.00;0.00;;;;;;;;;;6324014;22;20012;-93
2024/03/29 22:32:28;;;;;;;0.00;0.00;;;;;;;;;;6325008;22;20011;-93
2024/03/29 22:34:54;;;;;;;0.00;0.00;;;;;;;;;;6323981;22;20003;-93
2024/03/29 22:37:20;;;;;;;0.00;0.00;;;;;;;;;;6326427;22;19996;-93
2024/03/29 22:39:46;;;;;;;0.00;0.00;;;;;;;;;;6326307;22;20008;-92
2024/03/29 22:42:12;;;;;;;0.00;0.00;;;;;;;;;;6324201;22;20035;-93
2024/03/29 22:44:38;;;;;;;0.00;0.00;;;;;;;;;;6325671;22;20018;-92
2024/03/29 22:47:04;;;;;;;0.00;0.00;;;;;;;;;;6326982;22;20014;-93
2024/03/29 22:49:30;;;;;;;0.00;0.00;;;;;;;;;;6324390;22;20000;-93
2024/03/29 22:51:56;;;;;;;0.00;0.00;;;;;;;;;;6325587;22;20006;-94
2024/03/29 22:54:22;;;;;;;0.00;0.00;;;;;;;;;;6325534;22;19988;-93